sensor_id;sensor_type;location;lat;lon;timestamp;P1;durP1;ratioP1;P2;durP2;ratioP2
20865;SDS011;10593;48.398;10.698;2023-05-10T00:02:09;1.43;;;1.10;;
20865;SDS011;10593;48.398;10.698;2023-05-10T00:04:34;0.87;;;0.87;;
20865;SDS011;10593;48.398;10.698;2023-05-10T00:07:00;0.80;;;0.80;;
20865;SDS011;10593;48.398;10.698;2023-05-10T00:09:26;0.80;;;0.80;;
20865;SDS011;10593;48.398;10.698;2023-05-10T00:11:52;1.13;;;0.97;;
20865;SDS011;10593;48.398;10.698;2023-05-10T00:14:18;0.87;;;0.87;;
20865;SDS011;10593;48.398;10.698;2023-05-10T00:16:43;0.87;;;0.87;;
20865;SDS011;10593;48.398;10.698;2023-05-10T00:19:09;1.13;;;1.10;;
20865;SDS011;10593;48.398;10.698;2023-05-10T00:21:35;0.97;;;0.83;;
20865;SDS011;10593;48.398;10.698;2023-05-10T00:24:01;1.10;;;1.00;;
20865;SDS011;10593;48.398;10.698;2023-05-10T00:26:27;1.00;;;1.00;;
20865;SDS011;10593;48.398;10.698;2023-05-10T00:28:53;1.03;;;1.03;;
20865;SDS011;10593;48.398;10.698;2023-05-10T00:31:18;1.20;;;1.20;;
20865;SDS011;10593;48.398;10.698;2023-05-10T00:33:44;1.13;;;1.13;;
20865;SDS011;10593;48.398;10.698;2023-05-10T00:36:10;1.13;;;1.13;;
20865;SDS011;10593;48.398;10.698;2023-05-10T00:38:36;1.00;;;1.00;;
20865;SDS011;10593;48.398;10.698;2023-05-10T00:41:02;1.00;;;1.00;;
20865;SDS011;10593;48.398;10.698;2023-05-10T00:43:28;1.30;;;1.20;;
20865;SDS011;10593;48.398;10.698;2023-05-10T00:45:54;1.00;;;1.00;;
20865;SDS011;10593;48.398;10.698;2023-05-10T00:48:20;1.37;;;1.10;;
20865;SDS011;10593;48.398;10.698;2023-05-10T00:50:46;1.07;;;1.00;;
20865;SDS011;10593;48.398;10.698;2023-05-10T00:53:12;1.00;;;1.00;;
20865;SDS011;10593;48.398;10.698;2023-05-10T00:55:39;0.83;;;0.83;;
20865;SDS011;10593;48.398;10.698;2023-05-10T00:58:05;2.00;;;1.10;;
20865;SDS011;10593;48.398;10.698;2023-05-10T01:00:32;0.90;;;0.90;;
20865;SDS011;10593;48.398;10.698;2023-05-10T01:02:58;0.63;;;0.63;;
20865;SDS011;10593;48.398;10.698;2023-05-10T01:05:24;0.73;;;0.73;;
20865;SDS011;10593;48.398;10.698;2023-05-10T01:07:52;0.73;;;0.73;;
20865;SDS011;10593;48.398;10.698;2023-05-10T01:10:17;0.90;;;0.90;;
20865;SDS011;10593;48.398;10.698;2023-05-10T01:12:44;0.70;;;0.70;;
20865;SDS011;10593;48.398;10.698;2023-05-10T01:15:12;0.80;;;0.80;;
20865;SDS011;10593;48.398;10.698;2023-05-10T01:17:41;0.83;;;0.83;;
20865;SDS011;10593;48.398;10.698;2023-05-10T01:20:10;0.80;;;0.80;;
20865;SDS011;10593;48.398;10.698;2023-05-10T01:32:05;0.43;;;0.43;;
20865;SDS011;10593;48.398;10.698;2023-05-10T01:37:59;0.53;;;0.53;;
20865;SDS011;10593;48.398;10.698;2023-05-10T01:40:33;0.80;;;0.50;;
20865;SDS011;10593;48.398;10.698;2023-05-10T01:43:08;0.57;;;0.40;;
20865;SDS011;10593;48.398;10.698;2023-05-10T01:45:50;0.67;;;0.67;;
20865;SDS011;10593;48.398;10.698;2023-05-10T01:48:35;0.30;;;0.30;;
20865;SDS011;10593;48.398;10.698;2023-05-10T01:51:21;0.47;;;0.40;;
20865;SDS011;10593;48.398;10.698;2023-05-10T01:53:51;0.40;;;0.40;;
20865;SDS011;10593;48.398;10.698;2023-05-10T01:56:28;0.47;;;0.47;;
20865;SDS011;10593;48.398;10.698;2023-05-10T01:58:58;1.33;;;0.50;;
20865;SDS011;10593;48.398;10.698;2023-05-10T02:01:26;0.60;;;0.60;;
20865;SDS011;10593;48.398;10.698;2023-05-10T02:03:52;0.53;;;0.50;;
20865;SDS011;10593;48.398;10.698;2023-05-10T02:06:20;0.40;;;0.40;;
20865;SDS011;10593;48.398;10.698;2023-05-10T02:08:49;0.40;;;0.40;;
20865;SDS011;10593;48.398;10.698;2023-05-10T02:11:15;0.40;;;0.40;;
20865;SDS011;10593;48.398;10.698;2023-05-10T02:13:46;0.40;;;0.40;;
20865;SDS011;10593;48.398;10.698;2023-05-10T02:16:15;0.43;;;0.43;;
20865;SDS011;10593;48.398;10.698;2023-05-10T02:18:45;1.17;;;0.40;;
20865;SDS011;10593;48.398;10.698;2023-05-10T02:21:13;0.50;;;0.50;;
20865;SDS011;10593;48.398;10.698;2023-05-10T02:23:40;0.40;;;0.40;;
20865;SDS011;10593;48.398;10.698;2023-05-10T02:26:08;0.83;;;0.50;;
20865;SDS011;10593;48.398;10.698;2023-05-10T02:28:36;0.30;;;0.30;;
20865;SDS011;10593;48.398;10.698;2023-05-10T02:31:05;0.50;;;0.50;;
20865;SDS011;10593;48.398;10.698;2023-05-10T02:33:32;0.40;;;0.40;;
20865;SDS011;10593;48.398;10.698;2023-05-10T02:35:59;0.20;;;0.20;;
20865;SDS011;10593;48.398;10.698;2023-05-10T02:38:28;0.33;;;0.33;;
20865;SDS011;10593;48.398;10.698;2023-05-10T02:40:56;0.30;;;0.30;;
20865;SDS011;10593;48.398;10.698;2023-05-10T02:43:24;0.20;;;0.20;;
20865;SDS011;10593;48.398;10.698;2023-05-10T02:45:50;0.23;;;0.23;;
20865;SDS011;10593;48.398;10.698;2023-05-10T02:48:16;0.30;;;0.30;;
20865;SDS011;10593;48.398;10.698;2023-05-10T02:50:45;0.20;;;0.20;;
20865;SDS011;10593;48.398;10.698;2023-05-10T02:53:18;0.37;;;0.37;;
20865;SDS011;10593;48.398;10.698;2023-05-10T02:55:52;0.10;;;0.10;;
20865;SDS011;10593;48.398;10.698;2023-05-10T02:58:26;0.20;;;0.10;;
20865;SDS011;10593;48.398;10.698;2023-05-10T03:00:52;0.33;;;0.20;;
20865;SDS011;10593;48.398;10.698;2023-05-10T03:03:18;0.30;;;0.30;;
20865;SDS011;10593;48.398;10.698;2023-05-10T03:05:44;0.47;;;0.13;;
20865;SDS011;10593;48.398;10.698;2023-05-10T03:08:10;0.20;;;0.20;;
20865;SDS011;10593;48.398;10.698;2023-05-10T03:10:38;0.10;;;0.10;;
20865;SDS011;10593;48.398;10.698;2023-05-10T03:14:00;0.10;;;0.10;;
20865;SDS011;10593;48.398;10.698;2023-05-10T03:16:46;0.43;;;0.30;;
20865;SDS011;10593;48.398;10.698;2023-05-10T03:19:30;0.23;;;0.23;;
20865;SDS011;10593;48.398;10.698;2023-05-10T03:22:16;0.13;;;0.10;;
20865;SDS011;10593;48.398;10.698;2023-05-10T03:24:59;0.10;;;0.10;;
20865;SDS011;10593;48.398;10.698;2023-05-10T03:27:31;0.10;;;0.10;;
20865;SDS011;10593;48.398;10.698;2023-05-10T03:30:00;0.83;;;0.30;;
20865;SDS011;10593;48.398;10.698;2023-05-10T03:32:28;0.70;;;0.20;;
20865;SDS011;10593;48.398;10.698;2023-05-10T03:34:55;0.10;;;0.10;;
20865;SDS011;10593;48.398;10.698;2023-05-10T03:37:20;0.10;;;0.10;;
20865;SDS011;10593;48.398;10.698;2023-05-10T03:39:46;0.10;;;0.10;;
20865;SDS011;10593;48.398;10.698;2023-05-10T03:42:12;0.30;;;0.20;;
20865;SDS011;10593;48.398;10.698;2023-05-10T03:44:38;0.00;;;0.00;;
20865;SDS011;10593;48.398;10.698;2023-05-10T03:47:04;0.27;;;0.10;;
20865;SDS011;10593;48.398;10.698;2023-05-10T03:49:30;0.00;;;0.00;;
20865;SDS011;10593;48.398;10.698;2023-05-10T03:51:56;0.13;;;0.13;;
20865;SDS011;10593;48.398;10.698;2023-05-10T03:54:21;0.10;;;0.10;;
20865;SDS011;10593;48.398;10.698;2023-05-10T03:56:47;0.00;;;0.00;;
20865;SDS011;10593;48.398;10.698;2023-05-10T03:59:13;0.13;;;0.13;;
20865;SDS011;10593;48.398;10.698;2023-05-10T04:01:38;0.00;;;0.00;;
20865;SDS011;10593;48.398;10.698;2023-05-10T04:04:04;0.67;;;0.20;;
20865;SDS011;10593;48.398;10.698;2023-05-10T04:06:30;0.20;;;0.20;;
20865;SDS011;10593;48.398;10.698;2023-05-10T04:08:55;0.00;;;0.00;;
20865;SDS011;10593;48.398;10.698;2023-05-10T04:11:24;0.40;;;0.17;;
20865;SDS011;10593;48.398;10.698;2023-05-10T04:13:50;0.63;;;0.20;;
20865;SDS011;10593;48.398;10.698;2023-05-10T04:16:16;1.17;;;0.10;;
20865;SDS011;10593;48.398;10.698;2023-05-10T04:18:41;1.20;;;0.40;;
20865;SDS011;10593;48.398;10.698;2023-05-10T04:21:13;0.30;;;0.30;;
20865;SDS011;10593;48.398;10.698;2023-05-10T04:23:39;0.20;;;0.10;;
20865;SDS011;10593;48.398;10.698;2023-05-10T04:26:05;0.10;;;0.10;;
20865;SDS011;10593;48.398;10.698;2023-05-10T04:28:31;0.23;;;0.10;;
20865;SDS011;10593;48.398;10.698;2023-05-10T04:31:01;1.60;;;0.20;;
20865;SDS011;10593;48.398;10.698;2023-05-10T04:33:28;0.20;;;0.20;;
20865;SDS011;10593;48.398;10.698;2023-05-10T04:35:54;0.20;;;0.20;;
20865;SDS011;10593;48.398;10.698;2023-05-10T04:38:20;3.33;;;0.43;;
20865;SDS011;10593;48.398;10.698;2023-05-10T04:40:45;1.37;;;0.30;;
20865;SDS011;10593;48.398;10.698;2023-05-10T04:43:11;0.40;;;0.20;;
20865;SDS011;10593;48.398;10.698;2023-05-10T04:45:37;0.70;;;0.40;;
20865;SDS011;10593;48.398;10.698;2023-05-10T04:48:03;0.33;;;0.33;;
20865;SDS011;10593;48.398;10.698;2023-05-10T04:50:29;0.20;;;0.20;;
20865;SDS011;10593;48.398;10.698;2023-05-10T04:52:54;0.10;;;0.10;;
20865;SDS011;10593;48.398;10.698;2023-05-10T04:55:20;1.13;;;0.37;;
20865;SDS011;10593;48.398;10.698;2023-05-10T04:57:46;0.30;;;0.30;;
20865;SDS011;10593;48.398;10.698;2023-05-10T05:00:11;0.30;;;0.30;;
20865;SDS011;10593;48.398;10.698;2023-05-10T05:02:38;0.37;;;0.20;;
20865;SDS011;10593;48.398;10.698;2023-05-10T05:05:06;0.57;;;0.27;;
20865;SDS011;10593;48.398;10.698;2023-05-10T05:07:33;0.20;;;0.20;;
20865;SDS011;10593;48.398;10.698;2023-05-10T05:09:58;0.10;;;0.10;;
20865;SDS011;10593;48.398;10.698;2023-05-10T05:12:24;2.00;;;0.27;;
20865;SDS011;10593;48.398;10.698;2023-05-10T05:14:50;0.73;;;0.20;;
20865;SDS011;10593;48.398;10.698;2023-05-10T05:17:15;1.63;;;0.67;;
20865;SDS011;10593;48.398;10.698;2023-05-10T05:19:41;1.40;;;0.43;;
20865;SDS011;10593;48.398;10.698;2023-05-10T05:22:07;0.40;;;0.23;;
20865;SDS011;10593;48.398;10.698;2023-05-10T05:24:36;0.20;;;0.20;;
20865;SDS011;10593;48.398;10.698;2023-05-10T05:27:03;0.93;;;0.30;;
20865;SDS011;10593;48.398;10.698;2023-05-10T05:29:29;0.50;;;0.40;;
20865;SDS011;10593;48.398;10.698;2023-05-10T05:31:54;0.30;;;0.30;;
20865;SDS011;10593;48.398;10.698;2023-05-10T05:34:20;0.30;;;0.30;;
20865;SDS011;10593;48.398;10.698;2023-05-10T05:36:46;0.20;;;0.20;;
20865;SDS011;10593;48.398;10.698;2023-05-10T05:39:12;0.87;;;0.30;;
20865;SDS011;10593;48.398;10.698;2023-05-10T05:41:38;0.90;;;0.43;;
20865;SDS011;10593;48.398;10.698;2023-05-10T05:44:04;0.47;;;0.47;;
20865;SDS011;10593;48.398;10.698;2023-05-10T05:46:29;0.37;;;0.37;;
20865;SDS011;10593;48.398;10.698;2023-05-10T05:48:55;0.30;;;0.30;;
20865;SDS011;10593;48.398;10.698;2023-05-10T05:51:21;0.60;;;0.60;;
20865;SDS011;10593;48.398;10.698;2023-05-10T05:53:46;1.00;;;1.00;;
20865;SDS011;10593;48.398;10.698;2023-05-10T05:56:12;1.60;;;1.50;;
20865;SDS011;10593;48.398;10.698;2023-05-10T05:58:38;0.80;;;0.80;;
20865;SDS011;10593;48.398;10.698;2023-05-10T06:01:04;0.40;;;0.40;;
20865;SDS011;10593;48.398;10.698;2023-05-10T06:03:30;0.57;;;0.40;;
20865;SDS011;10593;48.398;10.698;2023-05-10T06:05:55;2.93;;;0.70;;
20865;SDS011;10593;48.398;10.698;2023-05-10T06:08:21;0.67;;;0.30;;
20865;SDS011;10593;48.398;10.698;2023-05-10T06:10:47;0.27;;;0.27;;
20865;SDS011;10593;48.398;10.698;2023-05-10T06:13:13;0.30;;;0.30;;
20865;SDS011;10593;48.398;10.698;2023-05-10T06:15:38;0.70;;;0.40;;
20865;SDS011;10593;48.398;10.698;2023-05-10T06:18:04;0.40;;;0.40;;
20865;SDS011;10593;48.398;10.698;2023-05-10T06:20:30;0.40;;;0.40;;
20865;SDS011;10593;48.398;10.698;2023-05-10T06:22:56;0.77;;;0.47;;
20865;SDS011;10593;48.398;10.698;2023-05-10T06:25:23;0.60;;;0.50;;
20865;SDS011;10593;48.398;10.698;2023-05-10T06:27:49;0.40;;;0.40;;
20865;SDS011;10593;48.398;10.698;2023-05-10T06:30:14;0.63;;;0.43;;
20865;SDS011;10593;48.398;10.698;2023-05-10T06:32:41;0.50;;;0.50;;
20865;SDS011;10593;48.398;10.698;2023-05-10T06:35:08;0.63;;;0.63;;
20865;SDS011;10593;48.398;10.698;2023-05-10T06:37:34;0.67;;;0.57;;
20865;SDS011;10593;48.398;10.698;2023-05-10T06:40:00;0.60;;;0.57;;
20865;SDS011;10593;48.398;10.698;2023-05-10T06:42:26;0.70;;;0.70;;
20865;SDS011;10593;48.398;10.698;2023-05-10T06:44:52;2.00;;;0.63;;
20865;SDS011;10593;48.398;10.698;2023-05-10T06:47:18;1.33;;;0.60;;
20865;SDS011;10593;48.398;10.698;2023-05-10T06:49:43;0.60;;;0.60;;
20865;SDS011;10593;48.398;10.698;2023-05-10T06:52:09;0.60;;;0.60;;
20865;SDS011;10593;48.398;10.698;2023-05-10T06:54:35;0.40;;;0.37;;
20865;SDS011;10593;48.398;10.698;2023-05-10T06:57:00;1.33;;;0.70;;
20865;SDS011;10593;48.398;10.698;2023-05-10T06:59:28;0.67;;;0.67;;
20865;SDS011;10593;48.398;10.698;2023-05-10T07:01:53;1.47;;;1.37;;
20865;SDS011;10593;48.398;10.698;2023-05-10T07:04:19;0.53;;;0.53;;
20865;SDS011;10593;48.398;10.698;2023-05-10T07:06:45;1.40;;;0.60;;
20865;SDS011;10593;48.398;10.698;2023-05-10T07:09:11;1.20;;;0.80;;
20865;SDS011;10593;48.398;10.698;2023-05-10T07:11:38;0.50;;;0.50;;
20865;SDS011;10593;48.398;10.698;2023-05-10T07:14:03;0.37;;;0.37;;
20865;SDS011;10593;48.398;10.698;2023-05-10T07:16:30;0.93;;;0.60;;
20865;SDS011;10593;48.398;10.698;2023-05-10T07:18:55;1.23;;;0.60;;
20865;SDS011;10593;48.398;10.698;2023-05-10T07:21:21;1.60;;;0.77;;
20865;SDS011;10593;48.398;10.698;2023-05-10T07:23:49;0.70;;;0.70;;
20865;SDS011;10593;48.398;10.698;2023-05-10T07:26:15;1.30;;;0.57;;
20865;SDS011;10593;48.398;10.698;2023-05-10T07:28:41;1.97;;;0.87;;
20865;SDS011;10593;48.398;10.698;2023-05-10T07:31:06;0.97;;;0.70;;
20865;SDS011;10593;48.398;10.698;2023-05-10T07:33:32;0.43;;;0.43;;
20865;SDS011;10593;48.398;10.698;2023-05-10T07:35:58;0.80;;;0.80;;
20865;SDS011;10593;48.398;10.698;2023-05-10T07:38:23;1.00;;;0.97;;
20865;SDS011;10593;48.398;10.698;2023-05-10T07:40:49;1.83;;;0.63;;
20865;SDS011;10593;48.398;10.698;2023-05-10T07:43:15;1.00;;;0.90;;
20865;SDS011;10593;48.398;10.698;2023-05-10T07:45:40;0.87;;;0.80;;
20865;SDS011;10593;48.398;10.698;2023-05-10T07:48:06;0.70;;;0.70;;
20865;SDS011;10593;48.398;10.698;2023-05-10T07:50:32;0.67;;;0.53;;
20865;SDS011;10593;48.398;10.698;2023-05-10T07:52:58;1.57;;;1.30;;
20865;SDS011;10593;48.398;10.698;2023-05-10T07:55:23;0.60;;;0.60;;
20865;SDS011;10593;48.398;10.698;2023-05-10T07:57:49;0.50;;;0.43;;
20865;SDS011;10593;48.398;10.698;2023-05-10T08:00:18;1.60;;;0.80;;
20865;SDS011;10593;48.398;10.698;2023-05-10T08:02:45;0.93;;;0.77;;
20865;SDS011;10593;48.398;10.698;2023-05-10T08:05:12;1.73;;;0.70;;
20865;SDS011;10593;48.398;10.698;2023-05-10T08:07:38;0.73;;;0.50;;
20865;SDS011;10593;48.398;10.698;2023-05-10T08:10:04;1.33;;;0.77;;
20865;SDS011;10593;48.398;10.698;2023-05-10T08:12:31;0.87;;;0.60;;
20865;SDS011;10593;48.398;10.698;2023-05-10T08:14:56;0.93;;;0.73;;
20865;SDS011;10593;48.398;10.698;2023-05-10T08:17:22;0.87;;;0.87;;
20865;SDS011;10593;48.398;10.698;2023-05-10T08:19:48;1.07;;;1.07;;
20865;SDS011;10593;48.398;10.698;2023-05-10T08:22:14;0.50;;;0.50;;
20865;SDS011;10593;48.398;10.698;2023-05-10T08:24:39;0.70;;;0.70;;
20865;SDS011;10593;48.398;10.698;2023-05-10T08:27:07;1.47;;;0.70;;
20865;SDS011;10593;48.398;10.698;2023-05-10T08:29:33;1.30;;;1.00;;
20865;SDS011;10593;48.398;10.698;2023-05-10T08:31:59;2.83;;;0.80;;
20865;SDS011;10593;48.398;10.698;2023-05-10T08:34:25;0.77;;;0.77;;
20865;SDS011;10593;48.398;10.698;2023-05-10T08:36:52;0.93;;;0.87;;
20865;SDS011;10593;48.398;10.698;2023-05-10T08:39:17;1.67;;;1.47;;
20865;SDS011;10593;48.398;10.698;2023-05-10T08:41:44;1.60;;;1.50;;
20865;SDS011;10593;48.398;10.698;2023-05-10T08:44:12;1.00;;;1.00;;
20865;SDS011;10593;48.398;10.698;2023-05-10T08:46:40;1.70;;;1.60;;
20865;SDS011;10593;48.398;10.698;2023-05-10T08:49:11;1.13;;;1.13;;
20865;SDS011;10593;48.398;10.698;2023-05-10T08:51:43;1.67;;;1.57;;
20865;SDS011;10593;48.398;10.698;2023-05-10T08:54:17;1.10;;;1.00;;
20865;SDS011;10593;48.398;10.698;2023-05-10T08:56:43;1.33;;;1.20;;
20865;SDS011;10593;48.398;10.698;2023-05-10T08:59:09;1.10;;;1.00;;
20865;SDS011;10593;48.398;10.698;2023-05-10T09:01:35;0.50;;;0.50;;
20865;SDS011;10593;48.398;10.698;2023-05-10T09:04:02;0.57;;;0.57;;
20865;SDS011;10593;48.398;10.698;2023-05-10T09:06:29;0.37;;;0.37;;
20865;SDS011;10593;48.398;10.698;2023-05-10T09:08:55;0.97;;;0.40;;
20865;SDS011;10593;48.398;10.698;2023-05-10T09:11:22;0.60;;;0.60;;
20865;SDS011;10593;48.398;10.698;2023-05-10T09:13:49;0.50;;;0.50;;
20865;SDS011;10593;48.398;10.698;2023-05-10T09:16:17;0.60;;;0.57;;
20865;SDS011;10593;48.398;10.698;2023-05-10T09:18:42;0.60;;;0.60;;
20865;SDS011;10593;48.398;10.698;2023-05-10T09:21:08;1.47;;;0.70;;
20865;SDS011;10593;48.398;10.698;2023-05-10T09:23:35;0.80;;;0.70;;
20865;SDS011;10593;48.398;10.698;2023-05-10T09:26:04;0.80;;;0.80;;
20865;SDS011;10593;48.398;10.698;2023-05-10T09:28:34;1.00;;;1.00;;
20865;SDS011;10593;48.398;10.698;2023-05-10T09:31:16;0.77;;;0.77;;
20865;SDS011;10593;48.398;10.698;2023-05-10T09:33:45;0.63;;;0.63;;
20865;SDS011;10593;48.398;10.698;2023-05-10T09:36:12;1.67;;;0.97;;
20865;SDS011;10593;48.398;10.698;2023-05-10T09:38:48;0.60;;;0.60;;
20865;SDS011;10593;48.398;10.698;2023-05-10T09:41:23;0.60;;;0.60;;
20865;SDS011;10593;48.398;10.698;2023-05-10T09:43:54;0.50;;;0.50;;
20865;SDS011;10593;48.398;10.698;2023-05-10T09:46:21;0.60;;;0.47;;
20865;SDS011;10593;48.398;10.698;2023-05-10T09:48:50;0.70;;;0.70;;
20865;SDS011;10593;48.398;10.698;2023-05-10T09:51:20;0.70;;;0.70;;
20865;SDS011;10593;48.398;10.698;2023-05-10T09:56:39;0.80;;;0.80;;
20865;SDS011;10593;48.398;10.698;2023-05-10T09:59:07;0.63;;;0.63;;
20865;SDS011;10593;48.398;10.698;2023-05-10T10:01:35;0.63;;;0.63;;
20865;SDS011;10593;48.398;10.698;2023-05-10T10:04:02;0.50;;;0.50;;
20865;SDS011;10593;48.398;10.698;2023-05-10T10:06:37;0.73;;;0.70;;
20865;SDS011;10593;48.398;10.698;2023-05-10T10:09:05;1.77;;;0.90;;
20865;SDS011;10593;48.398;10.698;2023-05-10T10:11:33;0.90;;;0.90;;
20865;SDS011;10593;48.398;10.698;2023-05-10T10:14:01;0.70;;;0.70;;
20865;SDS011;10593;48.398;10.698;2023-05-10T10:16:28;0.83;;;0.83;;
20865;SDS011;10593;48.398;10.698;2023-05-10T10:18:55;0.97;;;0.77;;
20865;SDS011;10593;48.398;10.698;2023-05-10T10:21:22;0.80;;;0.80;;
20865;SDS011;10593;48.398;10.698;2023-05-10T10:23:48;1.67;;;1.10;;
20865;SDS011;10593;48.398;10.698;2023-05-10T10:26:14;1.40;;;0.87;;
20865;SDS011;10593;48.398;10.698;2023-05-10T10:28:49;0.70;;;0.63;;
20865;SDS011;10593;48.398;10.698;2023-05-10T10:31:46;0.90;;;0.90;;
20865;SDS011;10593;48.398;10.698;2023-05-10T10:34:27;0.60;;;0.60;;
20865;SDS011;10593;48.398;10.698;2023-05-10T10:36:55;0.60;;;0.57;;
20865;SDS011;10593;48.398;10.698;2023-05-10T10:39:23;0.50;;;0.50;;
20865;SDS011;10593;48.398;10.698;2023-05-10T10:41:53;1.67;;;0.70;;
20865;SDS011;10593;48.398;10.698;2023-05-10T10:54:59;0.60;;;0.60;;
20865;SDS011;10593;48.398;10.698;2023-05-10T11:08:09;2.40;;;0.77;;
20865;SDS011;10593;48.398;10.698;2023-05-10T11:13:28;0.30;;;0.30;;
20865;SDS011;10593;48.398;10.698;2023-05-10T11:16:14;0.73;;;0.67;;
20865;SDS011;10593;48.398;10.698;2023-05-10T11:18:53;0.50;;;0.50;;
20865;SDS011;10593;48.398;10.698;2023-05-10T11:21:24;0.50;;;0.50;;
20865;SDS011;10593;48.398;10.698;2023-05-10T11:23:51;0.50;;;0.50;;
20865;SDS011;10593;48.398;10.698;2023-05-10T11:26:23;0.40;;;0.40;;
20865;SDS011;10593;48.398;10.698;2023-05-10T11:28:55;0.63;;;0.63;;
20865;SDS011;10593;48.398;10.698;2023-05-10T11:31:20;0.60;;;0.60;;
20865;SDS011;10593;48.398;10.698;2023-05-10T11:33:51;0.60;;;0.60;;
20865;SDS011;10593;48.398;10.698;2023-05-10T11:36:21;0.27;;;0.27;;
20865;SDS011;10593;48.398;10.698;2023-05-10T11:38:51;0.40;;;0.40;;
20865;SDS011;10593;48.398;10.698;2023-05-10T11:41:17;0.60;;;0.57;;
20865;SDS011;10593;48.398;10.698;2023-05-10T11:43:46;0.60;;;0.40;;
20865;SDS011;10593;48.398;10.698;2023-05-10T11:46:15;0.23;;;0.20;;
20865;SDS011;10593;48.398;10.698;2023-05-10T11:48:45;1.40;;;0.60;;
20865;SDS011;10593;48.398;10.698;2023-05-10T11:51:15;0.20;;;0.20;;
20865;SDS011;10593;48.398;10.698;2023-05-10T11:53:49;0.20;;;0.20;;
20865;SDS011;10593;48.398;10.698;2023-05-10T11:56:17;0.20;;;0.20;;
20865;SDS011;10593;48.398;10.698;2023-05-10T11:58:43;0.30;;;0.20;;
20865;SDS011;10593;48.398;10.698;2023-05-10T12:01:09;0.33;;;0.20;;
20865;SDS011;10593;48.398;10.698;2023-05-10T12:03:35;0.30;;;0.30;;
20865;SDS011;10593;48.398;10.698;2023-05-10T12:06:02;0.20;;;0.20;;
20865;SDS011;10593;48.398;10.698;2023-05-10T12:08:29;0.30;;;0.30;;
20865;SDS011;10593;48.398;10.698;2023-05-10T12:11:08;1.50;;;0.30;;
20865;SDS011;10593;48.398;10.698;2023-05-10T12:13:38;0.23;;;0.23;;
20865;SDS011;10593;48.398;10.698;2023-05-10T12:16:14;0.40;;;0.40;;
20865;SDS011;10593;48.398;10.698;2023-05-10T12:18:58;0.30;;;0.20;;
20865;SDS011;10593;48.398;10.698;2023-05-10T12:21:25;0.57;;;0.27;;
20865;SDS011;10593;48.398;10.698;2023-05-10T12:23:54;1.03;;;0.10;;
20865;SDS011;10593;48.398;10.698;2023-05-10T12:26:25;0.20;;;0.20;;
20865;SDS011;10593;48.398;10.698;2023-05-10T12:28:53;0.33;;;0.33;;
20865;SDS011;10593;48.398;10.698;2023-05-10T12:31:19;0.37;;;0.33;;
20865;SDS011;10593;48.398;10.698;2023-05-10T12:33:45;0.40;;;0.33;;
20865;SDS011;10593;48.398;10.698;2023-05-10T12:36:12;0.30;;;0.30;;
20865;SDS011;10593;48.398;10.698;2023-05-10T12:38:40;0.33;;;0.33;;
20865;SDS011;10593;48.398;10.698;2023-05-10T12:41:12;0.20;;;0.20;;
20865;SDS011;10593;48.398;10.698;2023-05-10T12:43:42;0.30;;;0.30;;
20865;SDS011;10593;48.398;10.698;2023-05-10T12:46:09;0.60;;;0.40;;
20865;SDS011;10593;48.398;10.698;2023-05-10T12:48:37;0.27;;;0.27;;
20865;SDS011;10593;48.398;10.698;2023-05-10T12:51:04;0.40;;;0.40;;
20865;SDS011;10593;48.398;10.698;2023-05-10T12:53:34;0.40;;;0.40;;
20865;SDS011;10593;48.398;10.698;2023-05-10T12:56:00;0.20;;;0.20;;
20865;SDS011;10593;48.398;10.698;2023-05-10T12:58:26;0.27;;;0.27;;
20865;SDS011;10593;48.398;10.698;2023-05-10T13:00:52;0.53;;;0.50;;
20865;SDS011;10593;48.398;10.698;2023-05-10T13:03:18;1.50;;;0.37;;
20865;SDS011;10593;48.398;10.698;2023-05-10T13:05:43;0.30;;;0.30;;
20865;SDS011;10593;48.398;10.698;2023-05-10T13:08:09;0.50;;;0.30;;
20865;SDS011;10593;48.398;10.698;2023-05-10T13:10:35;1.03;;;0.30;;
20865;SDS011;10593;48.398;10.698;2023-05-10T13:13:01;0.40;;;0.20;;
20865;SDS011;10593;48.398;10.698;2023-05-10T13:15:27;0.30;;;0.30;;
20865;SDS011;10593;48.398;10.698;2023-05-10T13:17:53;0.70;;;0.60;;
20865;SDS011;10593;48.398;10.698;2023-05-10T13:20:20;0.30;;;0.30;;
20865;SDS011;10593;48.398;10.698;2023-05-10T13:22:46;2.53;;;0.97;;
20865;SDS011;10593;48.398;10.698;2023-05-10T13:25:11;0.77;;;0.77;;
20865;SDS011;10593;48.398;10.698;2023-05-10T13:27:41;0.70;;;0.70;;
20865;SDS011;10593;48.398;10.698;2023-05-10T13:30:07;0.20;;;0.20;;
20865;SDS011;10593;48.398;10.698;2023-05-10T13:32:33;0.83;;;0.60;;
20865;SDS011;10593;48.398;10.698;2023-05-10T13:35:00;0.77;;;0.63;;
20865;SDS011;10593;48.398;10.698;2023-05-10T13:37:28;0.40;;;0.40;;
20865;SDS011;10593;48.398;10.698;2023-05-10T13:39:55;0.83;;;0.50;;
20865;SDS011;10593;48.398;10.698;2023-05-10T13:42:21;0.20;;;0.20;;
20865;SDS011;10593;48.398;10.698;2023-05-10T13:44:48;0.37;;;0.20;;
20865;SDS011;10593;48.398;10.698;2023-05-10T13:47:15;0.10;;;0.10;;
20865;SDS011;10593;48.398;10.698;2023-05-10T13:49:40;0.20;;;0.20;;
20865;SDS011;10593;48.398;10.698;2023-05-10T13:52:06;0.63;;;0.40;;
20865;SDS011;10593;48.398;10.698;2023-05-10T13:54:33;0.63;;;0.50;;
20865;SDS011;10593;48.398;10.698;2023-05-10T13:56:59;1.17;;;0.57;;
20865;SDS011;10593;48.398;10.698;2023-05-10T13:59:25;0.73;;;0.30;;
20865;SDS011;10593;48.398;10.698;2023-05-10T14:01:51;0.10;;;0.10;;
20865;SDS011;10593;48.398;10.698;2023-05-10T14:04:16;0.37;;;0.37;;
20865;SDS011;10593;48.398;10.698;2023-05-10T14:06:42;0.63;;;0.50;;
20865;SDS011;10593;48.398;10.698;2023-05-10T14:09:08;1.30;;;0.47;;
20865;SDS011;10593;48.398;10.698;2023-05-10T14:11:33;0.53;;;0.50;;
20865;SDS011;10593;48.398;10.698;2023-05-10T14:13:59;0.53;;;0.47;;
20865;SDS011;10593;48.398;10.698;2023-05-10T14:16:25;2.33;;;0.33;;
20865;SDS011;10593;48.398;10.698;2023-05-10T14:18:51;0.50;;;0.50;;
20865;SDS011;10593;48.398;10.698;2023-05-10T14:21:17;1.13;;;0.60;;
20865;SDS011;10593;48.398;10.698;2023-05-10T14:23:43;0.50;;;0.50;;
20865;SDS011;10593;48.398;10.698;2023-05-10T14:26:08;0.40;;;0.40;;
20865;SDS011;10593;48.398;10.698;2023-05-10T14:28:34;1.33;;;0.50;;
20865;SDS011;10593;48.398;10.698;2023-05-10T14:31:00;0.43;;;0.43;;
20865;SDS011;10593;48.398;10.698;2023-05-10T14:33:25;0.83;;;0.70;;
20865;SDS011;10593;48.398;10.698;2023-05-10T14:35:51;0.40;;;0.40;;
20865;SDS011;10593;48.398;10.698;2023-05-10T14:38:19;0.60;;;0.60;;
20865;SDS011;10593;48.398;10.698;2023-05-10T14:40:44;0.77;;;0.60;;
20865;SDS011;10593;48.398;10.698;2023-05-10T14:43:10;0.60;;;0.50;;
20865;SDS011;10593;48.398;10.698;2023-05-10T14:45:35;0.50;;;0.50;;
20865;SDS011;10593;48.398;10.698;2023-05-10T14:48:01;0.90;;;0.40;;
20865;SDS011;10593;48.398;10.698;2023-05-10T14:50:29;0.23;;;0.23;;
20865;SDS011;10593;48.398;10.698;2023-05-10T14:52:56;0.20;;;0.20;;
20865;SDS011;10593;48.398;10.698;2023-05-10T14:55:23;0.50;;;0.30;;
20865;SDS011;10593;48.398;10.698;2023-05-10T14:57:48;0.27;;;0.27;;
20865;SDS011;10593;48.398;10.698;2023-05-10T15:00:15;0.20;;;0.20;;
20865;SDS011;10593;48.398;10.698;2023-05-10T15:02:41;0.43;;;0.40;;
20865;SDS011;10593;48.398;10.698;2023-05-10T15:05:07;0.30;;;0.30;;
20865;SDS011;10593;48.398;10.698;2023-05-10T15:07:33;0.63;;;0.43;;
20865;SDS011;10593;48.398;10.698;2023-05-10T15:09:59;1.30;;;0.30;;
20865;SDS011;10593;48.398;10.698;2023-05-10T15:12:25;0.60;;;0.20;;
20865;SDS011;10593;48.398;10.698;2023-05-10T15:14:50;0.33;;;0.30;;
20865;SDS011;10593;48.398;10.698;2023-05-10T15:17:16;1.37;;;0.50;;